Time;durP1;ratioP1;P1;durP2;ratioP2;P2;SDS_P1;SDS_P2;PMS_P1;PMS_P2;Temp;Humidity;BMP_temperature;BMP_pressure;BME280_temperature;BME280_humidity;BME280_pressure;Samples;Min_cycle;Max_cycle;Signal;HPM_P1;HPM_P2
2021/05/13 00:01:28;;;;;;;4.20;1.30;;;;;;;14.85;44.03;99519.90;105104;1100;78973;-64
2021/05/13 00:03:35;;;;;;;7.00;1.40;;;;;;;14.85;44.43;99517.18;105067;1100;78918;-65
2021/05/13 00:05:41;;;;;;;4.30;1.40;;;;;;;14.81;44.23;99511.38;105073;1099;78722;-65
2021/05/13 00:07:49;;;;;;;4.70;1.50;;;;;;;14.76;44.33;99508.55;105088;1100;78308;-69
2021/05/13 00:09:55;;;;;;;3.30;1.80;;;;;;;14.70;44.31;99507.61;105108;1098;77676;-69
2021/05/13 00:12:02;;;;;;;3.30;1.20;;;;;;;14.65;44.12;99512.94;105112;1100;78507;-66
2021/05/13 00:14:09;;;;;;;6.10;1.30;;;;;;;14.59;44.77;99511.16;105082;1100;78812;-65
2021/05/13 00:16:15;;;;;;;3.60;1.30;;;;;;;14.58;45.03;99509.53;105126;1100;78237;-64
2021/05/13 00:18:21;;;;;;;3.30;1.30;;;;;;;14.54;45.16;99502.89;105035;1098;77232;-64
2021/05/13 00:20:33;;;;;;;3.90;1.10;;;;;;;14.50;45.32;99509.86;105107;1100;78295;-65
2021/05/13 00:22:39;;;;;;;2.60;1.20;;;;;;;14.46;44.96;99507.86;105078;1100;77348;-69
2021/05/13 00:24:47;;;;;;;4.30;1.20;;;;;;;14.37;45.23;99512.81;104993;1099;78212;-68
2021/05/13 00:26:58;;;;;;;3.70;1.20;;;;;;;14.34;45.32;99507.05;105169;1099;77621;-69
2021/05/13 00:29:05;;;;;;;3.20;1.40;;;;;;;14.27;45.70;99511.71;105085;1099;77869;-65
2021/05/13 00:31:11;;;;;;;1.70;1.20;;;;;;;14.24;45.64;99510.30;104987;1099;78701;-65
2021/05/13 00:33:19;;;;;;;5.00;1.20;;;;;;;14.19;45.91;99505.58;104966;1099;77868;-70
2021/05/13 00:35:25;;;;;;;2.20;1.10;;;;;;;14.14;45.71;99513.60;105064;1100;78706;-69
2021/05/13 00:37:31;;;;;;;2.30;1.00;;;;;;;14.09;45.93;99509.94;105103;1100;77705;-64
2021/05/13 00:39:39;;;;;;;3.40;1.00;;;;;;;14.03;46.54;99502.72;105072;1100;78751;-65
2021/05/13 00:41:45;;;;;;;3.40;1.30;;;;;;;14.01;46.39;99507.53;105067;1100;77467;-65
2021/05/13 00:43:51;;;;;;;3.60;1.20;;;;;;;13.99;46.54;99507.77;105085;1099;77997;-65
2021/05/13 00:45:59;;;;;;;2.90;1.10;;;;;;;13.96;46.51;99504.69;105087;1100;77745;-65
2021/05/13 00:48:13;;;;;;;2.80;1.10;;;;;;;13.90;46.87;99492.87;105101;1100;78634;-68
2021/05/13 00:50:18;;;;;;;2.70;1.50;;;;;;;13.87;46.61;99500.67;105104;1100;78834;-69
2021/05/13 00:52:25;;;;;;;2.70;1.00;;;;;;;13.81;46.62;99502.43;104973;1100;77061;-69
2021/05/13 00:54:34;;;;;;;1.80;1.10;;;;;;;13.77;47.14;99492.25;105131;1100;78250;-67
2021/05/13 00:56:39;;;;;;;2.00;1.30;;;;;;;13.74;47.15;99498.13;105096;1100;78239;-69
2021/05/13 00:58:47;;;;;;;2.60;1.30;;;;;;;13.68;47.43;99493.66;104987;1100;77333;-66
2021/05/13 01:01:03;;;;;;;1.80;1.10;;;;;;;13.63;47.87;99493.50;104946;1100;78584;-64
2021/05/13 01:03:09;;;;;;;6.00;1.30;;;;;;;13.61;47.60;99493.74;105107;1100;78306;-64
2021/05/13 01:05:14;;;;;;;2.30;0.90;;;;;;;13.55;48.13;99490.06;105081;1100;77815;-63
2021/05/13 01:07:20;;;;;;;3.10;1.40;;;;;;;13.56;47.75;99490.90;105078;1100;78498;-65
2021/05/13 01:09:28;;;;;;;3.30;1.20;;;;;;;13.51;47.75;99486.14;105074;1100;77569;-65
2021/05/13 01:11:35;;;;;;;2.10;1.00;;;;;;;13.47;47.96;99481.41;105112;1100;79036;-64
2021/05/13 01:13:58;;;;;;;3.70;1.40;;;;;;;13.43;48.51;99481.04;105113;1100;77194;-69
2021/05/13 01:16:11;;;;;;;2.80;1.10;;;;;;;13.41;48.27;99480.45;105089;1100;78825;-69
2021/05/13 01:18:18;;;;;;;3.20;1.00;;;;;;;13.40;48.86;99470.67;105117;1100;77260;-69
2021/05/13 01:20:27;;;;;;;3.70;1.20;;;;;;;13.38;48.71;99475.48;105077;1100;77772;-68
2021/05/13 01:22:32;;;;;;;3.70;1.10;;;;;;;13.36;48.77;99472.18;105122;1100;77574;-64
2021/05/13 01:24:39;;;;;;;4.30;1.40;;;;;;;13.32;48.73;99473.68;105067;1100;78296;-65
2021/05/13 01:26:48;;;;;;;3.50;1.20;;;;;;;13.31;48.79;99474.76;105089;1099;78675;-65
2021/05/13 01:28:54;;;;;;;3.50;1.10;;;;;;;13.28;49.05;99472.50;105099;1100;78739;-69
2021/05/13 01:31:03;;;;;;;2.90;1.10;;;;;;;13.23;48.83;99461.52;105091;1099;79942;-70
2021/05/13 01:33:12;;;;;;;5.30;1.10;;;;;;;13.19;49.02;99454.88;105109;1098;79203;-69
2021/05/13 01:35:21;;;;;;;3.80;1.30;;;;;;;13.17;49.03;99457.00;105065;1098;77672;-69
2021/05/13 01:37:27;;;;;;;4.40;1.50;;;;;;;13.16;49.21;99458.05;105121;1100;78716;-69
2021/05/13 01:39:33;;;;;;;5.20;2.50;;;;;;;13.13;49.68;99452.27;105042;1100;78516;-69
2021/05/13 01:41:40;;;;;;;1.90;1.00;;;;;;;13.11;49.34;99446.23;105077;1099;77442;-69
2021/05/13 01:43:46;;;;;;;2.90;1.10;;;;;;;13.07;49.39;99437.75;105131;1099;78575;-70
2021/05/13 01:45:52;;;;;;;2.00;1.20;;;;;;;13.03;49.45;99439.22;104986;1100;77262;-69
2021/05/13 01:48:03;;;;;;;2.70;1.20;;;;;;;12.99;49.32;99438.83;105102;1099;77161;-65
2021/05/13 01:50:10;;;;;;;3.10;1.10;;;;;;;12.95;49.37;99437.66;105111;1098;78276;-63
2021/05/13 01:52:16;;;;;;;2.90;1.10;;;;;;;12.91;50.04;99428.30;105082;1100;77243;-65
2021/05/13 01:54:24;;;;;;;2.00;0.90;;;;;;;12.92;49.94;99434.56;105101;1100;77888;-64
2021/05/13 01:56:30;;;;;;;2.90;1.70;;;;;;;12.89;49.91;99421.45;105069;1100;78343;-64
2021/05/13 01:58:36;;;;;;;3.40;1.20;;;;;;;12.87;50.00;99434.42;105113;1100;78649;-65
2021/05/13 02:00:44;;;;;;;4.20;1.20;;;;;;;12.81;49.81;99430.73;105045;1097;78687;-65
2021/05/13 02:02:51;;;;;;;3.60;1.10;;;;;;;12.75;50.04;99428.09;105114;1099;77390;-69
2021/05/13 02:04:59;;;;;;;2.10;1.10;;;;;;;12.74;50.04;99426.45;105132;1100;79604;-69
2021/05/13 02:07:05;;;;;;;3.80;1.00;;;;;;;12.70;50.10;99420.66;105135;1100;78806;-69
2021/05/13 02:09:14;;;;;;;2.50;1.00;;;;;;;12.67;50.25;99414.85;105072;1099;79144;-69
2021/05/13 02:11:19;;;;;;;2.80;1.30;;;;;;;12.62;50.40;99414.70;105082;1100;77452;-69
2021/05/13 02:13:25;;;;;;;3.00;0.90;;;;;;;12.56;51.35;99402.89;105072;1100;78350;-69
2021/05/13 02:15:31;;;;;;;2.90;1.20;;;;;;;12.55;50.78;99406.68;105136;1099;78347;-69
2021/05/13 02:17:37;;;;;;;3.50;1.10;;;;;;;12.52;50.76;99407.13;105097;1100;78596;-69
2021/05/13 02:19:46;;;;;;;2.40;1.10;;;;;;;12.48;51.11;99405.08;104954;1100;78410;-70
2021/05/13 02:21:51;;;;;;;2.40;1.00;;;;;;;12.44;50.93;99399.30;105053;1099;77526;-69
2021/05/13 02:23:57;;;;;;;2.50;1.00;;;;;;;12.40;51.09;99404.33;105126;1100;78781;-64
2021/05/13 02:26:03;;;;;;;2.70;1.10;;;;;;;12.38;50.90;99398.32;105107;1100;78927;-64
2021/05/13 02:28:08;;;;;;;3.50;1.00;;;;;;;12.35;51.37;99393.36;105105;1100;79023;-65
2021/05/13 02:30:16;;;;;;;4.40;1.40;;;;;;;12.33;51.24;99392.73;105129;1099;78170;-64
2021/05/13 02:32:22;;;;;;;2.60;1.20;;;;;;;12.32;51.21;99393.80;105132;1100;78448;-69
2021/05/13 02:34:28;;;;;;;2.10;1.00;;;;;;;12.27;51.45;99388.23;105080;1100;78162;-69
2021/05/13 02:36:33;;;;;;;4.80;1.20;;;;;;;12.26;51.74;99386.57;105151;1099;78696;-69
2021/05/13 02:38:39;;;;;;;3.00;1.10;;;;;;;12.25;51.65;99392.22;105034;1100;78475;-64
2021/05/13 02:40:44;;;;;;;2.30;1.10;;;;;;;12.23;51.67;99397.02;104976;1099;78451;-64
2021/05/13 02:42:54;;;;;;;3.70;1.10;;;;;;;12.20;51.74;99394.75;104970;1100;78402;-64
2021/05/13 02:45:00;;;;;;;3.80;1.20;;;;;;;12.16;52.19;99391.69;104962;1100;78125;-65
2021/05/13 02:47:06;;;;;;;2.90;1.20;;;;;;;12.14;52.18;99387.55;104959;1100;78421;-65
2021/05/13 02:49:14;;;;;;;2.70;1.40;;;;;;;12.16;52.31;99393.56;104979;1100;77454;-64
2021/05/13 02:51:20;;;;;;;2.90;1.10;;;;;;;12.13;52.58;99391.30;104975;1100;77481;-64
2021/05/13 02:53:29;;;;;;;3.10;1.30;;;;;;;12.12;52.42;99389.63;104976;1100;77109;-70
2021/05/13 02:55:34;;;;;;;3.30;1.10;;;;;;;12.09;52.48;99380.08;104958;1100;77905;-69
2021/05/13 02:57:41;;;;;;;1.80;1.10;;;;;;;12.05;52.70;99384.30;104969;1099;77002;-69
2021/05/13 02:59:51;;;;;;;3.10;1.20;;;;;;;12.03;52.89;99380.97;105004;1100;77053;-70
2021/05/13 03:01:59;;;;;;;2.90;1.10;;;;;;;12.04;52.65;99382.63;104948;1100;78575;-69
2021/05/13 03:04:06;;;;;;;2.20;1.20;;;;;;;12.01;52.85;99371.41;104970;1100;79111;-64
2021/05/13 03:06:12;;;;;;;2.10;1.30;;;;;;;11.98;53.21;99383.52;104986;1100;77723;-64
2021/05/13 03:08:17;;;;;;;1.50;1.00;;;;;;;11.95;52.97;99381.25;104988;1100;78724;-64
2021/05/13 03:10:33;;;;;;;1.40;0.90;;;;;;;11.96;52.86;99372.09;104974;1100;79297;-64
2021/05/13 03:12:39;;;;;;;1.80;1.10;;;;;;;11.98;53.12;99375.40;105006;1097;78475;-69
2021/05/13 03:14:45;;;;;;;3.00;1.20;;;;;;;11.97;53.04;99367.52;104985;1100;77027;-69
2021/05/13 03:16:51;;;;;;;2.50;0.90;;;;;;;11.98;52.91;99366.44;104991;1100;78413;-69
2021/05/13 03:18:59;;;;;;;1.20;0.90;;;;;;;11.96;53.24;99361.27;104978;1099;78787;-65
2021/05/13 03:21:10;;;;;;;2.00;1.00;;;;;;;11.95;53.27;99367.72;104970;1099;77919;-64
2021/05/13 03:23:15;;;;;;;2.10;1.20;;;;;;;11.96;53.03;99353.16;104948;1100;77895;-64
2021/05/13 03:25:26;;;;;;;1.30;1.00;;;;;;;12.00;53.07;99358.95;104967;1100;78160;-64
2021/05/13 03:27:45;;;;;;;2.10;0.90;;;;;;;12.03;53.14;99348.48;104999;1099;77339;-68
2021/05/13 03:29:50;;;;;;;1.80;1.10;;;;;;;12.07;53.34;99348.88;104980;1100;77598;-69
2021/05/13 03:31:59;;;;;;;3.40;1.10;;;;;;;12.09;53.11;99358.42;104967;1100;78791;-69
2021/05/13 03:34:05;;;;;;;2.90;1.20;;;;;;;12.17;53.36;99357.29;104992;1100;78623;-64
2021/05/13 03:36:13;;;;;;;1.70;1.10;;;;;;;12.28;53.16;99361.95;104992;1100;78845;-64
2021/05/13 03:38:20;;;;;;;2.40;1.10;;;;;;;12.88;53.28;99357.48;105084;1100;78174;-64
2021/05/13 03:40:30;;;;;;;3.30;1.10;;;;;;;13.98;52.72;99354.05;105146;1100;78599;-65
2021/05/13 03:42:36;;;;;;;2.20;1.00;;;;;;;15.51;51.36;99354.20;105122;1100;78262;-65
2021/05/13 03:44:44;;;;;;;2.30;1.50;;;;;;;16.79;49.75;99345.70;105110;1100;78198;-65
2021/05/13 03:46:53;;;;;;;4.00;1.30;;;;;;;18.27;47.98;99344.00;105166;1100;78433;-65
2021/05/13 03:49:01;;;;;;;4.40;1.40;;;;;;;19.50;45.95;99341.46;105121;1100;77464;-70
2021/05/13 03:51:07;;;;;;;2.90;1.20;;;;;;;20.38;43.18;99329.84;105114;1100;79074;-70
2021/05/13 03:53:16;;;;;;;3.20;1.20;;;;;;;21.23;42.49;99336.09;105151;1100;78263;-65
2021/05/13 03:55:22;;;;;;;6.20;1.20;;;;;;;22.14;40.90;99327.91;105140;1100;78225;-65
2021/05/13 03:57:27;;;;;;;2.70;1.50;;;;;;;23.05;38.84;99326.00;105153;1100;78451;-70
2021/05/13 03:59:37;;;;;;;5.70;1.90;;;;;;;23.75;37.37;99318.61;105090;1100;78429;-70
2021/05/13 04:01:49;;;;;;;6.00;1.60;;;;;;;24.41;36.07;99323.77;105148;1100;78367;-69
2021/05/13 04:03:57;;;;;;;6.60;1.30;;;;;;;24.76;34.37;99312.00;105127;1100;78938;-70
2021/05/13 04:06:03;;;;;;;3.30;1.00;;;;;;;24.78;33.66;99315.26;105001;1100;78938;-70
2021/05/13 04:08:09;;;;;;;2.90;1.20;;;;;;;24.49;33.06;99315.60;105116;1098;77202;-66
2021/05/13 04:10:15;;;;;;;4.70;1.00;;;;;;;24.62;32.91;99325.00;105110;1099;78298;-66
2021/05/13 04:12:21;;;;;;;1.90;1.20;;;;;;;25.03;32.20;99322.21;105158;1100;77186;-69
2021/05/13 04:14:27;;;;;;;3.90;1.10;;;;;;;24.98;31.58;99322.33;105159;1100;78991;-70
2021/05/13 04:16:35;;;;;;;2.00;1.10;;;;;;;24.15;31.36;99328.13;105119;1100;77600;-70
2021/05/13 04:18:41;;;;;;;3.90;1.10;;;;;;;22.93;32.14;99320.13;105148;1099;78904;-71
2021/05/13 04:20:46;;;;;;;4.40;1.20;;;;;;;21.99;32.72;99322.56;105128;1100;78819;-70
2021/05/13 04:22:52;;;;;;;2.50;1.20;;;;;;;21.02;33.48;99324.35;105151;1100;78720;-66
2021/05/13 04:25:01;;;;;;;3.60;1.50;;;;;;;20.24;34.39;99323.33;105136;1100;77674;-65
2021/05/13 04:27:07;;;;;;;4.90;1.70;;;;;;;19.98;35.09;99318.95;105173;1099;78321;-70
2021/05/13 04:29:16;;;;;;;4.30;1.40;;;;;;;19.45;35.56;99322.28;105159;1100;78159;-70
2021/05/13 04:31:22;;;;;;;3.20;1.40;;;;;;;18.85;36.44;99316.39;105099;1099;79163;-70
2021/05/13 04:33:27;;;;;;;4.10;1.50;;;;;;;19.07;36.75;99307.95;105135;1099;78545;-66
2021/05/13 04:35:33;;;;;;;2.80;1.50;;;;;;;19.82;36.77;99320.91;105116;1100;78457;-66
2021/05/13 04:37:39;;;;;;;7.40;1.70;;;;;;;21.39;35.42;99304.65;105129;1099;79515;-70
2021/05/13 04:39:44;;;;;;;3.50;1.50;;;;;;;22.96;34.38;99303.01;105111;1100;78475;-69
2021/05/13 04:41:51;;;;;;;3.40;1.20;;;;;;;24.24;33.62;99295.95;105115;1099;78240;-69
2021/05/13 04:43:57;;;;;;;5.30;1.70;;;;;;;25.28;31.85;99301.46;105151;1100;78085;-65
2021/05/13 04:46:03;;;;;;;3.00;1.20;;;;;;;26.07;30.47;99285.95;105114;1100;78285;-65
2021/05/13 04:48:12;;;;;;;5.30;1.40;;;;;;;27.09;29.71;99287.43;105159;1099;77471;-69
2021/05/13 04:50:20;;;;;;;4.40;1.50;;;;;;;27.02;28.30;99282.39;105062;1100;78176;-70
2021/05/13 04:52:26;;;;;;;3.20;1.50;;;;;;;27.50;28.12;99280.29;105159;1099;78605;-69
2021/05/13 04:54:32;;;;;;;6.50;1.70;;;;;;;28.47;27.47;99281.35;105120;1099;78080;-68
2021/05/13 04:56:37;;;;;;;2.30;1.30;;;;;;;28.66;26.10;99275.39;105002;1099;78986;-69
2021/05/13 04:58:44;;;;;;;3.60;1.30;;;;;;;29.06;25.44;99267.45;105204;1099;79683;-65
2021/05/13 05:00:49;;;;;;;4.30;1.20;;;;;;;29.22;25.14;99260.16;105096;1100;78768;-65
2021/05/13 05:02:56;;;;;;;3.20;1.20;;;;;;;29.42;25.33;99255.73;105171;1100;78957;-65
2021/05/13 05:05:06;;;;;;;3.00;1.40;;;;;;;29.66;24.90;99258.61;105157;1100;77753;-65
2021/05/13 05:07:12;;;;;;;2.50;1.30;;;;;;;30.43;23.84;99251.38;105179;1100;78462;-65
2021/05/13 05:09:21;;;;;;;2.40;1.40;;;;;;;30.29;24.00;99255.29;105192;1099;78495;-65
2021/05/13 05:11:26;;;;;;;2.60;1.30;;;;;;;31.04;22.81;99249.36;105089;1098;78412;-65
2021/05/13 05:13:32;;;;;;;3.30;1.30;;;;;;;30.81;23.18;99249.83;105123;1100;80239;-65
2021/05/13 05:15:41;;;;;;;2.60;1.20;;;;;;;31.32;22.63;99245.41;105120;1100;78603;-65
2021/05/13 05:17:51;;;;;;;4.50;1.30;;;;;;;31.00;21.99;99240.05;105152;1100;77321;-69
2021/05/13 05:19:57;;;;;;;2.70;1.30;;;;;;;31.63;22.00;99243.92;105120;1100;78585;-69
2021/05/13 05:22:10;;;;;;;1.90;1.10;;;;;;;31.62;22.29;99245.89;105122;1099;78258;-68
2021/05/13 05:24:15;;;;;;;3.80;1.40;;;;;;;31.93;21.15;99245.97;105175;1100;78645;-69
2021/05/13 05:26:21;;;;;;;3.90;1.70;;;;;;;31.94;20.63;99247.60;105142;1100;79327;-69
2021/05/13 05:28:28;;;;;;;2.70;1.20;;;;;;;32.67;20.70;99245.10;105149;1100;78537;-70
2021/05/13 05:30:37;;;;;;;2.70;1.50;;;;;;;33.05;20.17;99241.59;105082;1100;77824;-70
2021/05/13 05:32:46;;;;;;;2.50;1.10;;;;;;;32.75;20.16;99248.87;105155;1098;79030;-65
2021/05/13 05:34:55;;;;;;;4.00;1.50;;;;;;;32.88;19.56;99236.38;105132;1100;77537;-66
2021/05/13 05:37:06;;;;;;;4.30;2.00;;;;;;;33.10;20.09;99234.91;105147;1100;77199;-65
2021/05/13 05:39:12;;;;;;;4.20;1.50;;;;;;;32.97;19.41;99239.78;105108;1100;78957;-65
2021/05/13 05:41:21;;;;;;;3.00;1.20;;;;;;;33.07;19.42;99230.83;105127;1097;78477;-65
2021/05/13 05:43:30;;;;;;;5.60;2.30;;;;;;;33.13;19.69;99226.57;105153;1100;79037;-71
2021/05/13 05:45:36;;;;;;;5.30;2.20;;;;;;;33.22;19.44;99224.38;105176;1098;78402;-70
2021/05/13 05:47:44;;;;;;;5.10;2.40;;;;;;;33.97;19.08;99234.27;105175;1099;77197;-71
2021/05/13 05:49:50;;;;;;;4.80;1.70;;;;;;;33.42;18.46;99229.97;105144;1100;78546;-70
2021/05/13 05:51:56;;;;;;;3.60;1.50;;;;;;;33.57;19.02;99226.32;105117;1100;79004;-69
2021/05/13 05:54:01;;;;;;;4.50;1.70;;;;;;;33.76;18.89;99234.70;105109;1099;79138;-66
2021/05/13 05:56:07;;;;;;;4.80;1.50;;;;;;;33.37;18.79;99228.29;105119;1099;78006;-66
2021/05/13 05:58:14;;;;;;;3.20;1.50;;;;;;;33.69;18.59;99229.75;105157;1100;77645;-70
2021/05/13 06:00:21;;;;;;;5.70;1.60;;;;;;;34.11;18.21;99228.95;105176;1099;78529;-71
2021/05/13 06:02:27;;;;;;;4.30;1.60;;;;;;;34.23;18.30;99234.34;105146;1099;78647;-70
2021/05/13 06:04:32;;;;;;;3.90;1.70;;;;;;;34.80;17.74;99224.88;105129;1100;79179;-70
2021/05/13 06:06:38;;;;;;;4.50;2.10;;;;;;;34.70;17.60;99222.70;105154;1099;79573;-71
2021/05/13 06:08:45;;;;;;;3.50;2.00;;;;;;;34.17;18.03;99222.63;105145;1099;78269;-66
2021/05/13 06:10:50;;;;;;;5.90;1.70;;;;;;;34.50;18.00;99226.80;105163;1100;77969;-66
2021/05/13 06:12:56;;;;;;;4.90;1.60;;;;;;;34.03;18.05;99230.79;105163;1100;78700;-69
2021/05/13 06:15:02;;;;;;;3.90;1.60;;;;;;;34.17;17.84;99231.05;105109;1100;78307;-70
2021/05/13 06:17:08;;;;;;;10.60;2.70;;;;;;;34.19;17.94;99231.50;105182;1099;78862;-67
2021/05/13 06:19:17;;;;;;;2.00;1.20;;;;;;;34.06;17.57;99230.05;105130;1100;77903;-65
2021/05/13 06:21:24;;;;;;;4.90;1.50;;;;;;;33.99;17.89;99223.48;105150;1100;78793;-65
2021/05/13 06:23:30;;;;;;;4.10;1.70;;;;;;;34.20;17.73;99224.69;105121;1100;78531;-70
2021/05/13 06:25:39;;;;;;;2.00;1.10;;;;;;;33.99;17.42;99231.89;105165;1100;78394;-69
2021/05/13 06:27:45;;;;;;;6.30;1.40;;;;;;;33.19;18.08;99224.29;105153;1100;78165;-65
2021/05/13 06:29:51;;;;;;;2.40;1.20;;;;;;;33.21;17.84;99227.55;105176;1099;77846;-65
2021/05/13 06:31:57;;;;;;;5.90;1.40;;;;;;;33.53;17.25;99216.98;105161;1100;77922;-65
2021/05/13 06:34:05;;;;;;;4.10;1.30;;;;;;;33.27;17.83;99223.26;105124;1100;79123;-64
2021/05/13 06:36:14;;;;;;;4.00;1.40;;;;;;;33.53;17.95;99214.19;105106;1100;77999;-65
2021/05/13 06:38:22;;;;;;;2.60;1.60;;;;;;;33.47;17.69;99207.27;105169;1100;78323;-71
2021/05/13 06:40:28;;;;;;;2.10;1.10;;;;;;;33.79;17.50;99205.91;105137;1099;77693;-71
2021/05/13 06:42:37;;;;;;;3.70;2.30;;;;;;;33.93;17.46;99194.95;105164;1100;78246;-72
2021/05/13 06:44:43;;;;;;;3.50;1.40;;;;;;;34.42;17.37;99199.81;105174;1100;78663;-70
2021/05/13 06:46:51;;;;;;;2.80;1.30;;;;;;;33.84;17.00;99208.42;105121;1099;79897;-70
2021/05/13 06:48:56;;;;;;;3.10;1.30;;;;;;;33.70;17.36;99194.97;105124;1100;78625;-69
2021/05/13 06:51:06;;;;;;;3.10;1.20;;;;;;;33.71;17.08;99204.16;105175;1100;77528;-72
2021/05/13 06:53:12;;;;;;;3.10;1.40;;;;;;;33.35;17.31;99199.03;105151;1099;77951;-66
2021/05/13 06:55:18;;;;;;;3.10;1.40;;;;;;;33.78;17.59;99193.09;104980;1100;77134;-65
2021/05/13 06:57:23;;;;;;;4.30;1.50;;;;;;;34.19;17.00;99200.66;105143;1100;78273;-67
2021/05/13 06:59:29;;;;;;;4.50;1.10;;;;;;;33.90;16.93;99197.72;105155;1100;78733;-69
2021/05/13 07:01:36;;;;;;;2.60;1.30;;;;;;;33.29;17.29;99200.51;105157;1098;78882;-68
2021/05/13 07:03:42;;;;;;;2.30;1.10;;;;;;;33.23;17.23;99192.41;105160;1099;78617;-68
2021/05/13 07:05:53;;;;;;;4.70;1.30;;;;;;;33.50;17.36;99196.14;105108;1098;77860;-69
2021/05/13 07:07:58;;;;;;;3.10;1.50;;;;;;;34.19;17.11;99183.02;105134;1099;78645;-71
2021/05/13 07:10:10;;;;;;;2.10;1.10;;;;;;;34.32;17.02;99188.05;105133;1100;78616;-69
2021/05/13 07:12:16;;;;;;;2.00;1.20;;;;;;;34.28;16.54;99189.97;105166;1100;78441;-64
2021/05/13 07:14:25;;;;;;;3.30;1.10;;;;;;;34.36;16.68;99177.67;105139;1100;79656;-64
2021/05/13 07:16:33;;;;;;;4.20;1.20;;;;;;;33.59;16.20;99181.93;105157;1100;78951;-66
2021/05/13 07:18:41;;;;;;;2.90;1.30;;;;;;;32.97;17.28;99172.62;105151;1100;77491;-69
2021/05/13 07:20:47;;;;;;;3.00;1.10;;;;;;;33.00;17.08;99177.48;105158;1100;78718;-69
2021/05/13 07:22:53;;;;;;;2.90;1.30;;;;;;;32.97;17.11;99172.62;105147;1099;77340;-73
2021/05/13 07:24:59;;;;;;;2.90;1.50;;;;;;;33.46;17.54;99172.05;105092;1100;78840;-68
2021/05/13 07:27:09;;;;;;;3.10;1.30;;;;;;;33.72;17.35;99170.17;105147;1100;79043;-66
2021/05/13 07:29:15;;;;;;;4.30;1.30;;;;;;;34.24;16.95;99169.49;105116;1099;79070;-64
2021/05/13 07:31:21;;;;;;;5.00;1.10;;;;;;;34.24;16.15;99175.10;105167;1100;77773;-63
2021/05/13 07:33:27;;;;;;;3.50;1.30;;;;;;;33.69;16.74;99170.10;105161;1100;77632;-66
2021/05/13 07:35:33;;;;;;;3.90;1.10;;;;;;;32.93;16.62;99159.73;105140;1100;77250;-70
2021/05/13 07:37:43;;;;;;;1.90;1.00;;;;;;;33.29;17.51;99161.31;105128;1099;77518;-65
2021/05/13 07:39:51;;;;;;;3.40;1.00;;;;;;;33.66;16.60;99166.06;105156;1098;78553;-66
2021/05/13 07:41:59;;;;;;;2.80;0.80;;;;;;;33.44;16.75;99163.19;105163;1100;78530;-65
2021/05/13 07:44:08;;;;;;;3.70;1.20;;;;;;;33.41;17.12;99158.33;105149;1100;78950;-66
2021/05/13 07:46:20;;;;;;;2.50;0.90;;;;;;;33.25;17.13;99158.43;105170;1100;77148;-64
2021/05/13 07:48:31;;;;;;;2.90;1.00;;;;;;;33.41;16.98;99152.73;105117;1100;77767;-66
2021/05/13 07:50:37;;;;;;;2.10;1.00;;;;;;;33.32;17.39;99152.95;105154;1099;77604;-65
2021/05/13 07:52:49;;;;;;;1.70;0.80;;;;;;;33.52;17.40;99159.34;105158;1100;77945;-67
2021/05/13 07:54:58;;;;;;;2.30;1.10;;;;;;;33.10;16.76;99151.73;105134;1100;77189;-71
2021/05/13 07:57:13;;;;;;;2.60;0.90;;;;;;;32.82;17.17;99151.13;105134;1099;78651;-66
2021/05/13 07:59:20;;;;;;;3.60;1.00;;;;;;;32.99;17.04;99153.46;105119;1100;78785;-67
2021/05/13 08:01:26;;;;;;;1.40;0.90;;;;;;;33.02;16.82;99151.95;105126;1100;78678;-65
2021/05/13 08:03:32;;;;;;;2.90;1.00;;;;;;;32.82;16.77;99142.73;105111;1100;79074;-64
2021/05/13 08:05:40;;;;;;;3.30;0.90;;;;;;;33.05;16.87;99145.58;105142;1097;77314;-65
2021/05/13 08:07:46;;;;;;;3.20;1.20;;;;;;;33.28;15.90;99151.28;104977;1100;79137;-64
2021/05/13 08:09:52;;;;;;;3.10;1.10;;;;;;;32.55;15.94;99143.73;105117;1100;78505;-66
2021/05/13 08:11:58;;;;;;;3.80;1.10;;;;;;;32.30;16.71;99143.13;104987;1097;79048;-68
2021/05/13 08:14:05;;;;;;;4.90;1.60;;;;;;;32.69;17.25;99138.42;105130;1100;78827;-67
2021/05/13 08:16:11;;;;;;;2.20;1.30;;;;;;;33.05;16.76;99146.43;105088;1099;78859;-65
2021/05/13 08:18:17;;;;;;;3.10;0.70;;;;;;;33.58;16.84;99135.48;105147;1100;77176;-64
2021/05/13 08:20:25;;;;;;;2.70;0.90;;;;;;;33.99;16.50;99130.98;104960;1100;78371;-65
2021/05/13 08:22:34;;;;;;;1.70;0.80;;;;;;;33.48;16.32;99130.47;104987;1100;77394;-65
2021/05/13 08:24:43;;;;;;;2.40;1.00;;;;;;;33.41;16.67;99130.32;104993;1099;78636;-65
2021/05/13 08:26:49;;;;;;;6.50;1.70;;;;;;;33.74;15.96;99125.77;104985;1100;77593;-68
2021/05/13 08:28:55;;;;;;;1.50;1.00;;;;;;;33.91;16.22;99127.27;105074;1098;78911;-67
2021/05/13 08:31:00;;;;;;;2.40;0.90;;;;;;;33.54;16.56;99129.77;104984;1100;78530;-68
2021/05/13 08:33:06;;;;;;;3.30;1.00;;;;;;;33.57;16.51;99131.08;105078;1100;79067;-68
2021/05/13 08:35:15;;;;;;;3.10;0.80;;;;;;;33.48;16.00;99128.48;105121;1099;77281;-64
2021/05/13 08:37:21;;;;;;;5.70;1.40;;;;;;;33.59;16.28;99112.72;105105;1100;78343;-65
2021/05/13 08:39:30;;;;;;;2.70;1.30;;;;;;;33.43;16.31;99123.16;105109;1099;78721;-66
2021/05/13 08:41:36;;;;;;;3.90;1.00;;;;;;;33.00;16.71;99120.70;104929;1100;78290;-64
2021/05/13 08:43:50;;;;;;;3.50;1.00;;;;;;;33.15;16.80;99117.05;105127;1100;77236;-65
2021/05/13 08:45:57;;;;;;;4.30;0.90;;;;;;;32.48;16.62;99118.36;105123;1100;77584;-67
2021/05/13 08:48:02;;;;;;;4.50;1.20;;;;;;;32.31;16.69;99111.19;105132;1099;78037;-68
2021/05/13 08:50:12;;;;;;;3.00;1.20;;;;;;;32.67;16.68;99115.61;105135;1099;77593;-68
2021/05/13 08:52:20;;;;;;;3.50;1.10;;;;;;;32.52;16.69;99105.28;105156;1100;78019;-64
2021/05/13 08:54:28;;;;;;;2.20;0.90;;;;;;;32.04;17.33;99112.14;105119;1100;77966;-64
2021/05/13 08:56:32;;;;;;;3.70;1.20;;;;;;;32.28;17.15;99105.53;105165;1099;77589;-69
2021/05/13 08:58:38;;;;;;;4.20;1.30;;;;;;;32.56;17.10;99106.18;105090;1098;78244;-67
2021/05/13 09:00:56;;;;;;;5.00;1.50;;;;;;;32.77;17.64;99103.05;105021;1100;78931;-68
2021/05/13 09:03:01;;;;;;;5.30;1.70;;;;;;;32.62;17.16;99099.13;105081;1098;78428;-66
2021/05/13 09:05:11;;;;;;;3.40;1.20;;;;;;;32.77;17.20;99103.05;105166;1100;79106;-66
2021/05/13 09:07:23;;;;;;;3.60;1.00;;;;;;;32.23;16.93;99097.41;104966;1099;79002;-77
2021/05/13 09:09:31;;;;;;;4.30;1.30;;;;;;;31.33;17.59;99098.30;104967;1100;77645;-78
2021/05/13 09:11:46;;;;;;;3.10;1.00;;;;;;;30.98;17.82;99102.91;105122;1099;78259;-74
2021/05/13 09:13:57;;;;;;;1.50;0.90;;;;;;;30.60;17.63;99104.16;105177;1099;78905;-79
2021/05/13 09:18:55;;;;;;;1.70;1.00;;;;;;;29.74;19.58;99097.03;105110;1100;78340;-64
2021/05/13 09:21:08;;;;;;;2.60;1.00;;;;;;;29.91;18.88;99081.28;104919;1100;77903;-63
2021/05/13 09:23:20;;;;;;;;;;;;;;;29.42;18.76;99089.55;104978;1099;78221;-72
2021/05/13 09:25:29;;;;;;;3.80;1.10;;;;;;;28.40;20.54;99089.36;104989;1100;77710;-69
2021/05/13 09:27:42;;;;;;;3.40;1.10;;;;;;;28.02;20.14;99094.98;104972;1100;78286;-64
2021/05/13 09:30:00;;;;;;;2.70;0.90;;;;;;;27.88;20.83;99085.27;104999;1100;78160;-65
2021/05/13 09:32:17;;;;;;;3.90;0.90;;;;;;;27.42;21.11;99098.02;104996;1099;77484;-65
2021/05/13 09:34:21;;;;;;;4.00;0.80;;;;;;;27.23;21.27;99092.02;104990;1100;79096;-64
2021/05/13 09:36:33;;;;;;;3.50;1.20;;;;;;;27.40;21.30;99093.92;104948;1100;79681;-66
2021/05/13 09:38:39;;;;;;;1.90;0.80;;;;;;;26.99;20.89;99088.98;104983;1100;77082;-61
2021/05/13 09:43:18;;;;;;;2.20;0.80;;;;;;;26.57;20.80;99081.48;105125;1099;76946;-65
2021/05/13 09:45:50;;;;;;;2.80;0.70;;;;;;;26.30;20.47;99082.62;105185;1099;79009;-63
2021/05/13 09:48:03;;;;;;;2.50;0.90;;;;;;;25.65;21.18;99077.08;105207;1100;78371;-71
2021/05/13 09:50:23;;;;;;;5.10;1.80;;;;;;;25.31;22.00;99076.89;105102;1100;78710;-71
2021/05/13 09:52:51;;;;;;;1.60;0.80;;;;;;;25.51;22.33;99071.66;105147;1099;78381;-68
2021/05/13 09:55:25;;;;;;;1.80;0.80;;;;;;;25.36;21.55;99069.27;105159;1100;78495;-63
2021/05/13 09:58:01;;;;;;;2.90;0.70;;;;;;;25.51;23.57;99068.08;105144;1099;77931;-68
2021/05/13 10:00:11;;;;;;;1.30;0.70;;;;;;;25.27;22.56;99048.27;105157;1097;78736;-62